Time;durP1;ratioP1;P1;durP2;ratioP2;P2;SDS_P1;SDS_P2;PMS_P1;PMS_P2;Temp;Humidity;BMP_temperature;BMP_pressure;BME280_temperature;BME280_humidity;BME280_pressure;Samples;Min_cycle;Max_cycle;Signal;HPM_P1;HPM_P2
2022/09/25 00:02:11;;;;;;;39.20;35.07;;;12.90;99.90;;;12.72;97.06;97554.84;5127950;27;20499;-73
2022/09/25 00:04:39;;;;;;;39.90;35.80;;;12.80;99.90;;;12.79;97.11;97557.41;5127346;27;20550;-75
2022/09/25 00:07:06;;;;;;;38.03;34.30;;;12.90;99.90;;;12.80;96.34;97553.63;5100963;27;20937;-72
2022/09/25 00:09:33;;;;;;;41.20;36.97;;;12.90;99.90;;;12.82;96.03;97559.66;5127738;27;20463;-73
2022/09/25 00:12:00;;;;;;;38.50;34.67;;;12.90;99.90;;;12.78;96.57;97558.47;5089055;28;20442;-72
2022/09/25 00:14:30;;;;;;;37.47;33.47;;;12.90;99.90;;;12.70;96.22;97551.56;5089108;28;21033;-70
2022/09/25 00:16:57;;;;;;;36.67;32.93;;;12.90;99.90;;;12.74;95.88;97553.56;5113915;27;20500;-74
2022/09/25 00:22:10;;;;;;;37.47;33.67;;;12.90;99.90;;;12.77;95.62;97548.72;5109010;27;20802;-70
2022/09/25 00:24:37;;;;;;;37.47;33.73;;;12.90;99.90;;;12.87;95.27;97552.44;5123985;27;20449;-74
2022/09/25 00:27:07;;;;;;;35.97;32.17;;;12.90;99.90;;;12.81;95.68;97558.00;5125865;27;20553;-74
2022/09/25 00:29:36;;;;;;;36.83;33.03;;;12.80;99.90;;;12.63;96.13;97545.47;5107883;28;20469;-76
2022/09/25 00:32:04;;;;;;;36.00;32.40;;;12.80;99.90;;;12.71;96.08;97545.06;5122638;27;20453;-76
2022/09/25 00:34:33;;;;;;;39.70;35.50;;;12.80;99.90;;;12.54;96.26;97553.97;5128021;27;20738;-75
2022/09/25 00:37:00;;;;;;;38.73;34.53;;;12.70;99.90;;;12.56;97.16;97545.59;5127435;27;20484;-73
2022/09/25 00:39:28;;;;;;;40.10;36.07;;;12.70;99.90;;;12.55;97.87;97549.38;5123858;27;20456;-74
2022/09/25 00:41:55;;;;;;;38.87;34.67;;;12.70;99.90;;;12.52;97.12;97558.78;5107051;28;20486;-71
2022/09/25 00:44:57;;;;;;;38.57;34.33;;;12.70;99.90;;;12.50;97.72;97547.38;5109295;28;20457;-74
2022/09/25 00:47:45;;;;;;;37.77;33.70;;;12.60;99.90;;;12.41;97.28;97544.22;5098540;28;20565;-74
2022/09/25 00:50:26;;;;;;;38.20;34.40;;;12.70;99.90;;;12.41;97.60;97548.81;5097300;28;21079;-71
2022/09/25 00:52:57;;;;;;;37.47;33.70;;;12.60;99.90;;;12.39;98.07;97540.94;5108475;28;20609;-74
2022/09/25 00:55:25;;;;;;;38.23;34.17;;;12.60;99.90;;;12.51;97.88;97542.75;5098788;28;20696;-72
2022/09/25 00:57:56;;;;;;;37.87;33.87;;;12.60;99.90;;;12.60;96.79;97534.03;5105755;28;21023;-74
2022/09/25 01:00:23;;;;;;;36.90;33.20;;;12.60;99.90;;;12.58;96.28;97538.84;5109620;28;21035;-71
2022/09/25 01:02:53;;;;;;;38.50;34.43;;;12.60;99.90;;;12.52;96.27;97531.69;5127155;28;20582;-70
2022/09/25 01:05:28;;;;;;;39.13;35.10;;;12.60;99.90;;;12.31;97.06;97535.88;5102075;28;20463;-75
2022/09/25 01:07:59;;;;;;;35.77;32.07;;;12.60;99.90;;;12.27;97.12;97526.59;5089804;28;20558;-73
2022/09/25 01:10:28;;;;;;;35.33;31.63;;;12.50;99.90;;;12.39;96.86;97535.50;5088885;28;20465;-71
2022/09/25 01:12:57;;;;;;;35.70;31.03;;;12.50;99.90;;;12.36;97.02;97530.59;5115297;28;20504;-74
2022/09/25 01:15:32;;;;;;;37.67;33.73;;;12.50;99.90;;;12.21;98.12;97527.50;5104617;28;20454;-73
2022/09/25 01:18:11;;;;;;;38.77;34.57;;;12.50;99.90;;;12.30;97.59;97526.09;5123866;28;20448;-76
2022/09/25 01:21:06;;;;;;;39.30;35.17;;;12.40;99.90;;;12.25;98.21;97528.72;5099435;28;20457;-76
2022/09/25 01:24:43;;;;;;;37.40;33.53;;;12.50;99.90;;;12.14;98.38;97524.97;5107005;28;20804;-71
2022/09/25 01:27:41;;;;;;;39.30;35.27;;;12.40;99.90;;;12.23;98.26;97514.59;5021512;28;20509;-74
2022/09/25 01:30:13;;;;;;;39.20;35.13;;;12.40;99.90;;;12.15;99.08;97513.88;5088239;28;20450;-74
2022/09/25 01:32:58;;;;;;;39.83;34.53;;;12.40;99.90;;;12.17;97.89;97506.34;5106883;28;20534;-74
2022/09/25 01:35:47;;;;;;;38.97;34.87;;;12.40;99.90;;;12.14;97.83;97517.66;5109830;28;20553;-70
2022/09/25 01:38:24;;;;;;;37.60;33.70;;;12.40;99.90;;;12.17;97.83;97511.75;5108785;28;21076;-74
2022/09/25 01:40:58;;;;;;;36.90;33.10;;;12.40;99.90;;;12.25;97.83;97517.88;5105487;28;20537;-74
2022/09/25 01:43:33;;;;;;;38.07;34.03;;;12.40;99.90;;;12.27;97.64;97504.91;5128079;28;20457;-71
2022/09/25 01:46:04;;;;;;;36.33;32.43;;;12.40;99.90;;;12.26;97.57;97503.28;5126423;28;20512;-71
2022/09/25 01:48:35;;;;;;;39.03;34.90;;;12.40;99.90;;;12.22;97.58;97507.53;5092776;27;20887;-69
2022/09/25 01:51:06;;;;;;;39.27;35.10;;;12.40;99.90;;;12.11;97.72;97514.59;5121553;27;20516;-71
2022/09/25 01:53:39;;;;;;;39.07;35.07;;;12.40;99.90;;;12.04;97.82;97495.75;5092897;28;20537;-73
2022/09/25 01:56:14;;;;;;;35.87;32.23;;;12.30;99.90;;;12.11;97.56;97501.88;5125403;27;20447;-73
2022/09/25 01:58:46;;;;;;;36.87;32.97;;;12.30;99.90;;;12.11;97.93;97511.88;5096772;28;21039;-75
2022/09/25 02:01:21;;;;;;;38.87;34.77;;;12.40;99.90;;;12.05;97.86;97513.66;5109714;28;20906;-70
2022/09/25 02:03:56;;;;;;;38.30;34.27;;;12.30;99.90;;;12.09;98.52;97506.72;5092503;28;20460;-70
2022/09/25 02:06:25;;;;;;;37.23;33.33;;;12.30;99.90;;;12.09;97.77;97503.16;5116004;27;20475;-74
2022/09/25 02:08:57;;;;;;;35.87;31.93;;;12.30;99.90;;;12.15;97.62;97507.66;5093459;28;20499;-72
2022/09/25 02:11:30;;;;;;;37.27;33.37;;;12.40;99.90;;;12.16;97.71;97499.28;5114181;27;20466;-70
2022/09/25 02:14:04;;;;;;;36.93;33.23;;;12.40;99.90;;;12.10;97.18;97505.66;5091490;28;21004;-74
2022/09/25 02:16:37;;;;;;;39.07;34.67;;;12.40;99.90;;;12.10;97.33;97492.13;5111480;27;20472;-74
2022/09/25 02:21:58;;;;;;;37.77;33.77;;;12.40;99.90;;;11.97;98.24;97500.47;5121423;27;20465;-75
2022/09/25 02:24:34;;;;;;;36.80;32.70;;;12.30;99.90;;;12.03;98.01;97494.09;5096629;27;20489;-71
2022/09/25 02:27:01;;;;;;;37.20;33.40;;;12.30;99.90;;;11.99;98.04;97498.34;5110983;27;20464;-70
2022/09/25 02:29:29;;;;;;;35.73;32.13;;;12.20;99.90;;;11.84;98.26;97480.69;5093324;28;20545;-72
2022/09/25 02:32:03;;;;;;;34.93;31.43;;;12.20;99.90;;;11.93;98.55;97497.38;5108674;28;20561;-75
2022/09/25 02:34:31;;;;;;;35.40;31.90;;;12.20;99.90;;;11.86;98.43;97494.00;5109586;28;20941;-75
2022/09/25 02:36:59;;;;;;;38.23;32.80;;;12.20;99.90;;;11.95;98.06;97494.47;5090976;27;20991;-71
2022/09/25 02:39:30;;;;;;;36.60;32.37;;;12.20;99.90;;;11.80;98.12;97493.06;5093959;28;20492;-72
2022/09/25 02:42:24;;;;;;;35.90;32.30;;;12.10;99.90;;;11.72;98.33;97501.53;5107937;28;20565;-71
2022/09/25 02:45:08;;;;;;;35.87;32.27;;;12.00;99.90;;;11.71;98.76;97491.75;5090814;28;20956;-70
2022/09/25 02:47:49;;;;;;;36.67;32.90;;;12.00;99.90;;;11.94;97.55;97504.44;5121140;27;20551;-71
2022/09/25 02:50:25;;;;;;;34.97;31.20;;;12.10;99.90;;;11.95;97.78;97508.00;5119780;27;20458;-71
2022/09/25 02:53:03;;;;;;;35.40;31.70;;;12.10;99.90;;;11.73;98.14;97479.66;5109363;27;20534;-72
2022/09/25 02:55:39;;;;;;;34.63;30.97;;;12.10;99.90;;;11.82;98.12;97509.03;5089426;28;20837;-71
2022/09/25 02:58:13;;;;;;;32.30;29.10;;;12.10;99.90;;;11.86;98.23;97510.25;5118165;27;20522;-73
2022/09/25 03:00:46;;;;;;;35.73;30.90;;;12.10;99.90;;;11.87;97.27;97518.09;5129338;27;20599;-72
2022/09/25 03:03:17;;;;;;;33.70;30.00;;;12.10;99.90;;;11.86;96.66;97512.94;5116076;27;20501;-73
2022/09/25 03:05:46;;;;;;;32.50;29.10;;;12.10;99.90;;;11.88;96.47;97508.94;5089275;28;20525;-73
2022/09/25 03:10:59;;;;;;;34.53;29.70;;;12.20;99.90;;;11.98;96.07;97504.81;5133910;27;20447;-71
2022/09/25 03:13:30;;;;;;;33.70;30.10;;;12.20;99.90;;;11.86;96.66;97504.81;5112308;27;20452;-74
2022/09/25 03:16:02;;;;;;;34.20;30.63;;;12.10;99.90;;;11.91;96.24;97504.94;5110361;27;20456;-73
2022/09/25 03:18:31;;;;;;;31.57;28.17;;;12.20;99.90;;;11.98;96.31;97502.09;5111976;27;20449;-72
2022/09/25 03:20:59;;;;;;;32.47;29.00;;;12.20;99.90;;;12.05;95.89;97502.81;5109109;27;20580;-73
2022/09/25 03:23:26;;;;;;;31.77;28.37;;;12.20;99.90;;;11.91;96.36;97502.22;5129198;27;20461;-74
2022/09/25 03:25:54;;;;;;;33.03;29.60;;;12.10;99.90;;;11.86;95.93;97511.03;5107765;27;20457;-72
2022/09/25 03:28:23;;;;;;;34.07;30.60;;;12.20;99.90;;;11.88;95.66;97514.34;5124522;27;20464;-71
2022/09/25 03:30:59;;;;;;;30.77;27.77;;;12.20;99.90;;;11.79;95.42;97513.06;5122058;27;20486;-77
2022/09/25 03:33:28;;;;;;;31.63;28.53;;;12.10;99.90;;;11.79;96.29;97518.47;5108707;28;20448;-72
2022/09/25 03:36:08;;;;;;;33.80;30.33;;;12.00;99.90;;;11.88;95.99;97514.34;5106295;27;20554;-73
2022/09/25 03:38:35;;;;;;;34.53;30.90;;;12.10;99.90;;;12.10;94.52;97505.66;5116281;27;20464;-73
2022/09/25 03:41:05;;;;;;;33.27;29.70;;;12.20;99.90;;;12.06;94.46;97509.91;5127307;27;20564;-73
2022/09/25 03:43:35;;;;;;;31.97;28.57;;;12.20;99.90;;;12.05;94.62;97497.41;5110799;27;20467;-71
2022/09/25 03:46:03;;;;;;;32.27;28.93;;;12.30;99.90;;;12.15;94.13;97508.47;5127596;27;20449;-70
2022/09/25 03:48:31;;;;;;;31.07;27.93;;;12.30;99.90;;;12.02;94.59;97503.28;5119781;27;20932;-76
2022/09/25 03:50:59;;;;;;;32.53;29.13;;;12.30;99.90;;;11.93;94.51;97505.50;5109695;27;20484;-72
2022/09/25 03:53:30;;;;;;;32.77;29.37;;;12.20;99.90;;;11.96;94.36;97505.03;5119441;27;20446;-72
2022/09/25 03:55:57;;;;;;;33.57;29.87;;;12.20;99.90;;;11.81;95.26;97502.81;5107670;27;21147;-74
2022/09/25 03:58:25;;;;;;;31.30;27.50;;;12.20;99.90;;;11.77;96.02;97496.25;5106218;27;20488;-71
2022/09/25 04:00:55;;;;;;;34.50;29.50;;;12.10;99.90;;;11.73;95.98;97492.34;5090434;28;21041;-71
2022/09/25 04:03:23;;;;;;;35.30;30.67;;;12.10;99.90;;;11.85;96.28;97493.16;5108851;28;20450;-71
2022/09/25 04:05:51;;;;;;;33.73;30.23;;;12.10;99.90;;;11.72;96.03;97488.81;5106766;27;20507;-72
2022/09/25 04:08:18;;;;;;;38.13;31.57;;;12.10;99.90;;;11.85;95.83;97493.16;5105978;27;20460;-73
2022/09/25 04:10:46;;;;;;;35.03;29.80;;;12.10;99.90;;;11.83;95.81;97489.88;5116418;27;20541;-72
2022/09/25 04:13:15;;;;;;;33.93;28.77;;;12.10;99.90;;;11.66;96.35;97489.75;5095930;28;20556;-71
2022/09/25 04:15:42;;;;;;;35.40;30.97;;;12.00;99.90;;;11.77;96.32;97480.81;5106288;28;20462;-72
2022/09/25 04:18:10;;;;;;;34.37;30.67;;;12.00;99.90;;;11.80;96.94;97484.94;5108218;28;20759;-74
2022/09/25 04:20:37;;;;;;;33.60;30.00;;;12.10;99.90;;;11.61;96.88;97486.94;5093659;27;20592;-80
2022/09/25 04:23:05;;;;;;;34.00;30.37;;;12.00;99.90;;;11.56;96.89;97482.22;5097565;28;20482;-74
2022/09/25 04:25:32;;;;;;;33.37;29.77;;;12.00;99.90;;;11.60;97.47;97480.72;5113846;27;20466;-71
2022/09/25 04:28:00;;;;;;;33.80;30.03;;;12.00;99.90;;;11.58;97.70;97485.50;5102677;28;21159;-72
2022/09/25 04:30:29;;;;;;;36.43;32.50;;;11.90;99.90;;;11.62;97.00;97484.00;5110125;27;20994;-74
2022/09/25 04:35:42;;;;;;;36.43;30.73;;;12.00;99.90;;;11.58;96.81;97480.09;5101024;27;20459;-72
2022/09/25 04:38:09;;;;;;;40.27;30.77;;;12.00;99.90;;;11.54;97.30;97487.06;5101239;28;20887;-75
2022/09/25 04:40:37;;;;;;;37.33;32.37;;;12.00;99.90;;;11.65;97.35;97484.59;5107459;27;20796;-72
2022/09/25 04:43:07;;;;;;;36.17;32.30;;;12.00;99.90;;;11.70;97.04;97484.69;5109688;28;20962;-72
2022/09/25 04:45:36;;;;;;;38.50;31.43;;;12.00;99.90;;;11.51;97.63;97487.53;5107899;28;20503;-72
2022/09/25 04:48:04;;;;;;;40.10;32.10;;;11.90;99.90;;;11.53;97.69;97480.00;5124409;28;20912;-73
2022/09/25 04:50:32;;;;;;;36.57;30.90;;;11.90;99.90;;;11.65;96.86;97490.00;5104322;28;20452;-75
2022/09/25 04:53:01;;;;;;;35.10;31.17;;;11.90;99.90;;;11.85;95.84;97481.53;5128191;28;21026;-73
2022/09/25 04:55:28;;;;;;;40.07;32.07;;;12.00;99.90;;;11.68;95.56;97476.84;5113319;28;20713;-73
2022/09/25 04:57:58;;;;;;;37.73;31.40;;;12.00;99.90;;;11.66;95.96;97489.75;5105393;28;20457;-72
2022/09/25 05:00:30;;;;;;;37.60;32.87;;;12.00;99.90;;;11.58;96.62;97499.03;5127773;28;20475;-71
2022/09/25 05:02:57;;;;;;;35.70;30.47;;;12.00;99.90;;;11.57;96.16;97494.69;5109774;28;20598;-70
2022/09/25 05:05:29;;;;;;;35.27;30.20;;;11.90;99.90;;;11.58;96.42;97487.41;5097387;28;20549;-72
2022/09/25 05:07:58;;;;;;;35.43;30.50;;;11.90;99.90;;;11.48;95.88;97477.19;5105171;28;20476;-74
2022/09/25 05:10:29;;;;;;;35.33;31.47;;;11.90;99.90;;;11.58;95.64;97488.22;5106946;28;20944;-73
2022/09/25 05:12:57;;;;;;;39.70;33.17;;;11.90;99.90;;;11.55;95.47;97486.00;5109462;28;20519;-71
2022/09/25 05:15:26;;;;;;;34.37;30.63;;;11.90;99.90;;;11.67;95.29;97487.88;5126204;28;20433;-74
2022/09/25 05:18:00;;;;;;;38.57;33.03;;;11.90;99.90;;;11.67;95.03;97488.69;5127429;28;20533;-71
2022/09/25 05:20:28;;;;;;;34.23;30.40;;;11.90;99.90;;;11.50;94.29;97431.78;5119828;28;20467;-72
2022/09/25 05:22:56;;;;;;;33.07;29.57;;;12.00;99.90;;;11.84;94.10;97483.41;5117661;28;20456;-74
2022/09/25 05:25:24;;;;;;;32.70;29.00;;;12.00;99.90;;;11.94;94.07;97480.09;5087801;28;20986;-75
2022/09/25 05:27:54;;;;;;;34.67;29.10;;;12.10;99.90;;;11.59;94.66;97481.75;5120443;27;20526;-77
2022/09/25 05:30:21;;;;;;;33.30;29.70;;;12.00;99.90;;;11.68;94.25;97470.59;5118966;27;20465;-72
2022/09/25 05:32:51;;;;;;;33.43;29.83;;;11.90;99.90;;;11.65;94.67;97462.94;5132246;27;20486;-72
2022/09/25 05:35:20;;;;;;;31.60;28.27;;;12.00;99.90;;;11.74;94.77;97477.75;5130964;27;20465;-71
2022/09/25 05:37:48;;;;;;;32.53;29.13;;;12.00;99.90;;;11.69;94.35;97475.78;5112110;28;21026;-74
2022/09/25 05:40:16;;;;;;;34.27;30.80;;;12.00;99.90;;;11.83;93.98;97481.75;5110876;28;20452;-73
2022/09/25 05:42:44;;;;;;;31.70;28.30;;;12.10;99.90;;;11.79;93.80;97477.88;5098390;28;20531;-73
2022/09/25 05:45:12;;;;;;;31.03;27.67;;;12.10;99.90;;;11.79;94.32;97479.75;5109965;28;20444;-77
2022/09/25 05:47:39;;;;;;;29.63;26.60;;;12.10;99.90;;;11.62;94.39;97478.59;5119512;27;20470;-73
2022/09/25 05:50:10;;;;;;;31.67;27.00;;;12.00;99.90;;;11.62;94.79;97489.41;5093488;28;20450;-80
2022/09/25 05:52:37;;;;;;;30.50;27.30;;;12.00;99.90;;;11.76;93.67;97467.53;5109908;27;20518;-71
2022/09/25 05:55:08;;;;;;;30.53;26.40;;;12.00;99.90;;;11.68;94.04;97476.84;5111384;27;20518;-74
2022/09/25 05:57:36;;;;;;;31.00;27.77;;;12.00;99.90;;;11.74;93.75;97480.47;5109299;28;20541;-71
2022/09/25 06:00:07;;;;;;;29.93;26.60;;;12.00;99.90;;;11.77;93.80;97488.13;5092662;28;20499;-75
2022/09/25 06:02:34;;;;;;;35.00;27.67;;;12.10;99.90;;;11.85;93.52;97486.94;5110856;28;21023;-75
2022/09/25 06:05:02;;;;;;;34.33;26.30;;;12.10;99.90;;;11.96;92.91;97477.97;5110265;28;20673;-71
2022/09/25 06:07:30;;;;;;;28.43;25.33;;;12.20;99.90;;;12.20;92.04;97486.09;5091040;28;20995;-72
2022/09/25 06:09:57;;;;;;;27.63;24.90;;;12.30;99.90;;;12.01;92.03;97485.38;5112393;27;20447;-72
2022/09/25 06:12:24;;;;;;;30.87;26.57;;;12.30;99.90;;;11.93;92.90;97472.22;5110705;27;20451;-74
2022/09/25 06:14:52;;;;;;;29.50;25.57;;;12.30;99.90;;;12.15;92.74;97484.09;5130562;27;20539;-72
2022/09/25 06:17:19;;;;;;;36.07;26.70;;;12.40;99.90;;;12.29;91.51;97481.94;5129836;27;20953;-72
2022/09/25 06:19:47;;;;;;;28.10;24.43;;;12.50;99.90;;;12.46;90.79;97492.03;5131886;27;20463;-78
2022/09/25 06:22:14;;;;;;;30.30;26.47;;;12.60;99.90;;;12.40;90.92;97488.41;5130616;27;20445;-72
2022/09/25 06:24:42;;;;;;;31.90;25.93;;;12.60;99.90;;;12.14;91.55;97487.88;5107901;27;20453;-73
2022/09/25 06:27:09;;;;;;;34.73;28.57;;;12.50;99.90;;;12.06;92.48;97487.41;5108916;27;20556;-74
2022/09/25 06:29:36;;;;;;;34.57;26.70;;;12.40;99.90;;;12.21;91.89;97485.03;5111122;28;20716;-71
2022/09/25 06:32:04;;;;;;;31.00;25.63;;;12.50;99.90;;;12.27;92.09;97477.84;5104511;28;20455;-74
2022/09/25 06:34:31;;;;;;;32.70;26.60;;;12.50;99.90;;;12.25;91.91;97479.97;5095772;28;20465;-70
2022/09/25 06:37:00;;;;;;;36.10;26.13;;;12.50;99.90;;;12.37;91.68;97480.75;5108661;28;20529;-71
2022/09/25 06:39:27;;;;;;;32.63;26.57;;;12.60;99.90;;;12.50;91.05;97479.63;5109231;27;20751;-75
2022/09/25 06:41:55;;;;;;;33.27;26.07;;;12.70;99.90;;;12.66;89.99;97486.19;5109610;27;20503;-73
2022/09/25 06:44:23;;;;;;;32.60;24.83;;;12.80;99.90;;;12.52;90.85;97484.84;5111971;27;20493;-72
2022/09/25 06:46:53;;;;;;;32.57;26.90;;;12.80;99.90;;;12.62;90.77;97498.56;5109985;27;20482;-72
2022/09/25 06:49:20;;;;;;;30.23;24.20;;;12.80;99.90;;;12.67;90.15;97492.41;5101885;28;20480;-71
2022/09/25 06:51:49;;;;;;;31.73;24.80;;;12.90;99.90;;;12.54;90.74;97488.94;5123860;27;20449;-71
2022/09/25 06:54:17;;;;;;;33.37;26.23;;;12.80;99.90;;;12.35;91.50;97463.91;5098054;27;20529;-72
2022/09/25 06:56:44;;;;;;;34.33;26.20;;;12.70;99.90;;;12.59;91.04;97480.06;5121138;27;20459;-81
2022/09/25 06:59:12;;;;;;;40.40;27.57;;;12.80;99.90;;;12.56;90.95;97497.63;5127906;27;20461;-74
2022/09/25 07:01:39;;;;;;;33.67;25.80;;;12.90;99.90;;;12.85;90.90;97483.28;5112074;27;20469;-72
2022/09/25 07:04:05;;;;;;;31.30;24.97;;;13.00;99.90;;;13.40;88.20;97492.63;5127422;27;21149;-73
2022/09/25 07:06:33;;;;;;;36.90;25.20;;;13.20;99.90;;;13.45;86.95;97491.91;5109129;28;20810;-73
2022/09/25 07:09:02;;;;;;;32.97;25.47;;;13.50;99.20;;;13.50;86.96;97496.59;5110178;28;20637;-72
2022/09/25 07:11:31;;;;;;;32.60;23.73;;;13.60;98.90;;;13.41;87.10;97493.41;5101878;27;20481;-73
2022/09/25 07:13:58;;;;;;;30.13;23.80;;;13.60;97.90;;;13.50;86.48;97493.88;5121896;27;20435;-73
2022/09/25 07:16:29;;;;;;;31.27;24.33;;;13.70;97.70;;;13.48;87.85;97501.44;5110187;27;20454;-72
2022/09/25 07:18:59;;;;;;;33.23;24.80;;;13.60;99.30;;;13.47;87.33;97495.19;5111672;27;20457;-71
2022/09/25 07:21:29;;;;;;;34.20;23.93;;;13.70;97.60;;;13.71;85.93;97501.25;5110397;27;20446;-70
2022/09/25 07:23:57;;;;;;;28.43;23.67;;;13.80;97.10;;;13.78;86.52;97506.53;5094166;27;20862;-75
2022/09/25 07:26:27;;;;;;;31.73;23.70;;;14.00;97.40;;;13.79;86.44;97502.72;5126444;27;20449;-72
2022/09/25 07:28:57;;;;;;;28.57;23.17;;;14.00;96.80;;;13.92;85.39;97500.75;5095311;28;20909;-75
2022/09/25 07:31:28;;;;;;;26.80;22.10;;;14.10;96.10;;;14.13;84.76;97491.78;5128212;27;20458;-71
2022/09/25 07:33:59;;;;;;;27.73;23.10;;;14.30;95.70;;;14.13;84.84;97491.00;5127551;27;20910;-73
2022/09/25 07:36:26;;;;;;;29.50;22.77;;;14.40;95.10;;;14.08;82.39;97433.88;5112854;27;21121;-73
2022/09/25 07:38:54;;;;;;;27.33;22.27;;;14.50;94.10;;;14.61;81.29;97485.84;5090759;28;20454;-73
2022/09/25 07:41:22;;;;;;;29.17;22.47;;;14.70;93.30;;;14.80;80.28;97493.72;5109333;27;20468;-71
2022/09/25 07:43:52;;;;;;;26.87;21.80;;;14.90;92.60;;;14.85;80.79;97491.03;5116992;27;20453;-72
2022/09/25 07:46:19;;;;;;;25.07;21.43;;;15.00;92.40;;;15.23;78.34;97477.50;5091723;27;20447;-70
2022/09/25 07:48:50;;;;;;;30.20;23.20;;;15.20;91.70;;;14.99;80.17;97497.72;5094239;28;20494;-74
2022/09/25 07:51:20;;;;;;;27.83;21.27;;;15.30;91.80;;;14.96;79.25;97479.19;5108597;28;20833;-72
2022/09/25 07:53:48;;;;;;;28.23;21.20;;;15.20;91.60;;;15.68;77.44;97486.28;5091952;28;20491;-72
2022/09/25 07:56:16;;;;;;;26.70;21.33;;;15.50;91.40;;;14.97;78.09;97450.06;5108144;27;20459;-77
2022/09/25 07:58:47;;;;;;;25.87;21.00;;;15.60;90.80;;;15.37;77.34;97494.22;5128106;27;20450;-79
2022/09/25 08:01:14;;;;;;;23.53;21.00;;;15.60;90.50;;;15.55;77.34;97488.41;5103751;27;20451;-73
2022/09/25 08:03:41;;;;;;;23.07;19.10;;;15.70;90.50;;;15.35;78.17;97490.94;5109235;28;20512;-72
2022/09/25 08:06:12;;;;;;;25.70;20.93;;;15.60;90.60;;;15.56;76.33;97495.47;5108009;27;20444;-72
2022/09/25 08:08:41;;;;;;;23.77;19.33;;;15.80;90.00;;;15.76;75.91;97488.53;5128955;27;20469;-72
2022/09/25 08:11:11;;;;;;;22.27;19.70;;;15.90;90.00;;;16.00;75.17;97480.81;5121736;27;20489;-71
2022/09/25 08:13:38;;;;;;;21.57;18.33;;;16.00;90.10;;;15.84;75.54;97493.47;5112466;27;20480;-75
2022/09/25 08:16:11;;;;;;;25.47;19.83;;;15.90;89.80;;;15.61;75.23;97499.31;5100215;27;20460;-74
2022/09/25 08:18:40;;;;;;;26.60;22.30;;;15.90;89.20;;;15.81;75.31;97499.44;5100344;27;20516;-77
2022/09/25 08:21:09;;;;;;;25.57;21.43;;;16.00;89.50;;;15.22;76.69;97506.59;5103535;28;20947;-75
2022/09/25 08:23:37;;;;;;;25.47;19.53;;;15.60;89.30;;;15.70;76.32;97501.28;5090658;28;21082;-73
2022/09/25 08:26:04;;;;;;;22.03;18.90;;;15.70;90.20;;;15.41;77.09;97503.53;5112810;27;20828;-71
2022/09/25 08:28:31;;;;;;;23.93;20.97;;;15.50;90.30;;;15.36;77.22;97500.75;5090396;28;20634;-73
2022/09/25 08:30:59;;;;;;;26.97;21.87;;;15.40;90.40;;;15.62;76.38;97498.22;5122363;27;21055;-73
2022/09/25 08:33:26;;;;;;;24.20;20.97;;;15.50;90.40;;;15.35;77.22;97502.66;5123066;27;20453;-74
2022/09/25 08:35:58;;;;;;;23.73;20.07;;;15.50;90.40;;;15.21;77.41;97499.53;5147383;27;21084;-75
2022/09/25 08:38:28;;;;;;;27.87;22.20;;;15.40;90.20;;;15.12;77.53;97499.19;5130606;27;20449;-73
2022/09/25 08:40:59;;;;;;;26.33;19.97;;;15.30;90.40;;;15.24;76.85;97493.59;5115291;27;20521;-73
2022/09/25 08:43:28;;;;;;;23.53;19.80;;;15.30;90.30;;;15.01;78.86;97495.53;5101254;28;20461;-74
2022/09/25 08:49:05;;;;;;;25.60;22.07;;;15.30;91.20;;;15.11;78.62;97488.56;5094338;28;20480;-79
2022/09/25 08:51:37;;;;;;;25.23;21.47;;;15.40;90.80;;;15.18;77.44;97478.28;5104348;28;20446;-74
2022/09/25 08:54:06;;;;;;;23.17;19.57;;;15.40;90.80;;;15.24;78.10;97482.72;5109681;28;20466;-80
2022/09/25 08:56:35;;;;;;;25.37;19.90;;;15.40;90.80;;;15.61;75.28;97428.53;5123382;28;20458;-74
2022/09/25 08:59:10;;;;;;;25.40;21.00;;;15.80;90.20;;;15.52;76.28;97477.19;5125569;27;20537;-75
2022/09/25 09:01:46;;;;;;;23.00;19.80;;;15.60;90.10;;;15.55;76.66;97482.94;5132233;27;20449;-71
2022/09/25 09:04:19;;;;;;;23.73;19.13;;;15.80;90.10;;;15.32;77.04;97483.28;5132456;27;20534;-74
2022/09/25 09:06:52;;;;;;;23.23;18.63;;;15.70;90.10;;;15.17;78.56;97498.41;5113260;27;20607;-80
2022/09/25 09:09:30;;;;;;;24.37;19.73;;;15.60;90.30;;;15.50;76.79;97490.25;5109370;27;20479;-75
2022/09/25 09:12:02;;;;;;;22.93;19.00;;;15.60;90.30;;;15.90;74.48;97482.66;5112400;27;20456;-73
2022/09/25 09:14:33;;;;;;;22.57;19.20;;;15.80;89.80;;;15.54;76.04;97475.88;5130377;27;20548;-74
2022/09/25 09:17:05;;;;;;;22.57;18.53;;;15.90;89.70;;;15.34;77.10;97483.84;5098684;27;21237;-74
2022/09/25 09:19:33;;;;;;;20.33;18.13;;;15.70;89.70;;;15.33;77.34;97468.59;5132766;27;20448;-71
2022/09/25 09:22:06;;;;;;;20.97;18.13;;;15.60;90.00;;;15.62;75.68;97471.00;5118392;27;20463;-77
2022/09/25 09:24:53;;;;;;;22.93;18.67;;;15.80;89.50;;;15.56;75.51;97473.69;5098600;27;20457;-75
2022/09/25 09:27:37;;;;;;;21.93;17.97;;;15.80;89.30;;;15.39;75.67;97473.84;5127554;27;20461;-73
2022/09/25 09:30:14;;;;;;;21.67;19.37;;;15.70;89.10;;;15.62;75.04;97473.72;5112714;27;20962;-76
2022/09/25 09:33:13;;;;;;;22.10;18.10;;;15.70;89.30;;;16.01;74.12;97473.47;5111172;28;20922;-77
2022/09/25 09:35:49;;;;;;;20.07;17.73;;;15.90;89.20;;;15.71;74.44;97481.13;5053472;28;20446;-74
2022/09/25 09:38:28;;;;;;;19.33;17.27;;;16.00;88.30;;;15.95;73.17;97479.94;5111420;28;20577;-72
2022/09/25 09:41:14;;;;;;;22.17;18.20;;;16.20;87.90;;;15.62;73.69;97417.38;5111945;27;20458;-71
2022/09/25 09:44:00;;;;;;;23.07;18.77;;;16.30;88.30;;;16.20;73.38;97473.00;5117927;27;20452;-75
2022/09/25 09:46:38;;;;;;;21.03;17.93;;;16.40;88.00;;;16.26;73.65;97466.47;5094465;27;20452;-72
2022/09/25 09:49:15;;;;;;;19.07;16.90;;;16.40;87.80;;;16.74;70.61;97465.53;5101747;28;20466;-71
2022/09/25 09:51:48;;;;;;;20.60;17.47;;;16.80;86.80;;;16.63;70.55;97468.25;5110616;28;20472;-73
2022/09/25 09:54:22;;;;;;;19.23;17.20;;;16.80;86.40;;;17.29;69.11;97457.75;5112948;27;20970;-74
2022/09/25 09:56:52;;;;;;;17.63;15.83;;;17.10;86.80;;;16.54;71.37;97456.22;5109638;27;20446;-81
2022/09/25 09:59:23;;;;;;;18.67;16.67;;;17.00;86.00;;;17.06;70.32;97453.63;5113365;27;20460;-71
2022/09/25 10:02:00;;;;;;;22.07;19.77;;;17.00;86.70;;;17.70;67.39;97445.97;5110316;28;20449;-73
2022/09/25 10:04:35;;;;;;;20.53;18.33;;;17.40;85.60;;;17.61;66.77;97439.41;5110761;28;20445;-73
2022/09/25 10:07:08;;;;;;;21.27;17.60;;;17.70;84.60;;;17.34;67.30;97440.53;5108991;28;20544;-75
2022/09/25 10:09:36;;;;;;;20.50;18.40;;;17.50;84.30;;;16.90;69.07;97434.47;5117956;27;20506;-72
2022/09/25 10:12:11;;;;;;;17.77;16.07;;;17.10;84.70;;;17.01;68.09;97429.91;5099891;28;21035;-75
2022/09/25 10:14:42;;;;;;;18.57;16.73;;;17.20;84.40;;;17.17;67.30;97435.38;5110696;28;20461;-73
2022/09/25 10:17:14;;;;;;;18.93;17.00;;;17.10;84.40;;;17.54;66.26;97424.13;5117189;27;20456;-75
2022/09/25 10:19:52;;;;;;;19.47;17.37;;;17.50;84.00;;;17.49;66.94;97426.84;5113307;27;20455;-74
2022/09/25 10:22:24;;;;;;;17.77;15.83;;;17.50;84.10;;;17.92;65.33;97431.16;5130797;27;20517;-71
2022/09/25 10:25:00;;;;;;;17.40;15.50;;;17.90;83.40;;;18.01;64.75;97426.75;5109019;27;20469;-75
2022/09/25 10:27:34;;;;;;;15.70;14.10;;;18.00;83.10;;;18.16;64.00;97423.16;5109097;28;20510;-73
2022/09/25 10:30:19;;;;;;;17.17;14.57;;;18.20;82.70;;;18.65;62.18;97423.47;5101755;27;20463;-72
2022/09/25 10:32:56;;;;;;;16.50;14.27;;;18.40;81.70;;;18.25;63.01;97409.72;5104301;27;20967;-75
2022/09/25 10:35:28;;;;;;;15.50;13.90;;;18.60;81.40;;;18.40;62.57;97386.97;5090624;28;20963;-72
2022/09/25 10:38:00;;;;;;;14.17;12.67;;;18.50;81.70;;;19.50;58.79;97420.66;5117515;27;20461;-70